Time;durP1;ratioP1;P1;durP2;ratioP2;P2;SDS_P1;SDS_P2;PMS_P1;PMS_P2;Temp;Humidity;BMP_temperature;BMP_pressure;BME280_temperature;BME280_humidity;BME280_pressure;Samples;Min_cycle;Max_cycle;Signal;HPM_P1;HPM_P2
2022/03/21 00:00:57;;;;;;;46.40;32.50;;;;;;;8.24;47.39;102837.50;5017630;28;20506;-63
2022/03/21 00:03:28;;;;;;;52.03;33.20;;;;;;;8.22;47.44;102836.66;5013252;28;20046;-64
2022/03/21 00:05:57;;;;;;;49.08;33.42;;;;;;;8.25;47.63;102841.94;5017717;28;20148;-64
2022/03/21 00:08:24;;;;;;;46.42;33.42;;;;;;;8.27;47.61;102840.09;5017877;28;20484;-64
2022/03/21 00:10:54;;;;;;;49.80;34.40;;;;;;;8.27;47.61;102836.53;5035615;28;20056;-63
2022/03/21 00:13:22;;;;;;;51.55;33.22;;;;;;;8.25;47.70;102841.94;5035651;28;20076;-64
2022/03/21 00:15:50;;;;;;;45.13;33.78;;;;;;;8.24;47.57;102850.00;5016786;28;20043;-64
2022/03/21 00:18:20;;;;;;;50.22;34.25;;;;;;;8.20;47.49;102848.34;5017898;28;20117;-64
2022/03/21 00:20:49;;;;;;;47.03;34.08;;;;;;;8.17;47.58;102843.94;5016911;28;20045;-63
2022/03/21 00:23:17;;;;;;;49.47;34.35;;;;;;;8.16;47.62;102844.84;5035417;28;20136;-64
2022/03/21 00:25:44;;;;;;;47.92;33.33;;;;;;;8.15;47.56;102845.78;5035306;28;20053;-63
2022/03/21 00:28:12;;;;;;;50.20;35.10;;;;;;;8.15;47.64;102847.56;5017284;28;20478;-63
2022/03/21 00:30:41;;;;;;;49.70;35.15;;;;;;;8.14;47.66;102848.50;5017187;28;20076;-64
2022/03/21 00:33:09;;;;;;;49.63;34.38;;;;;;;8.14;47.80;102853.84;5017172;28;20091;-64
2022/03/21 00:35:36;;;;;;;51.88;35.05;;;;;;;8.13;47.69;102849.41;5017663;28;20399;-64
2022/03/21 00:38:04;;;;;;;49.00;34.63;;;;;;;8.14;47.63;102852.03;5035396;28;20125;-63
2022/03/21 00:40:31;;;;;;;48.83;34.13;;;;;;;8.13;47.60;102844.06;5035202;28;20037;-64
2022/03/21 00:42:58;;;;;;;47.08;34.15;;;;;;;8.11;47.30;102851.25;5034952;28;20033;-63
2022/03/21 00:45:25;;;;;;;49.85;35.13;;;;;;;8.06;47.64;102850.50;5001236;28;20136;-64
2022/03/21 00:47:54;;;;;;;49.35;34.25;;;;;;;8.02;47.62;102843.50;5017137;28;20095;-64
2022/03/21 00:50:24;;;;;;;54.92;34.78;;;;;;;7.99;47.70;102847.13;5016937;28;20041;-63
2022/03/21 00:52:55;;;;;;;49.20;34.17;;;;;;;7.94;47.70;102849.94;5034841;28;20392;-64
2022/03/21 00:55:26;;;;;;;51.42;35.00;;;;;;;7.90;47.81;102855.41;5017111;28;20500;-63
2022/03/21 00:57:53;;;;;;;46.47;33.08;;;;;;;7.87;47.73;102860.84;5016613;28;20499;-63
2022/03/21 01:00:22;;;;;;;49.30;33.13;;;;;;;7.86;47.71;102868.00;5012014;28;20042;-64
2022/03/21 01:02:48;;;;;;;48.60;33.15;;;;;;;7.86;47.78;102867.13;5012267;28;20034;-64
2022/03/21 01:05:18;;;;;;;49.90;33.80;;;;;;;7.86;47.91;102873.34;5034819;28;20410;-64
2022/03/21 01:07:46;;;;;;;49.47;32.92;;;;;;;7.88;47.90;102875.97;5034509;28;20053;-63
2022/03/21 01:10:16;;;;;;;48.33;33.92;;;;;;;7.91;47.95;102890.16;5000327;28;20037;-63
2022/03/21 01:12:43;;;;;;;49.75;34.25;;;;;;;7.89;48.02;102873.25;5016979;28;20140;-65
2022/03/21 01:15:14;;;;;;;51.05;34.97;;;;;;;7.88;48.05;102876.88;5016520;28;20077;-64
2022/03/21 01:17:42;;;;;;;51.70;35.22;;;;;;;7.87;48.00;102879.56;5015727;28;20117;-64
2022/03/21 01:20:10;;;;;;;51.78;34.75;;;;;;;7.83;47.96;102877.91;5034646;28;20488;-64
2022/03/21 01:22:37;;;;;;;55.60;34.17;;;;;;;7.76;47.98;102877.19;5033408;28;20112;-64
2022/03/21 01:25:05;;;;;;;47.88;33.33;;;;;;;7.71;47.97;102870.22;4996950;28;20034;-64
2022/03/21 01:27:34;;;;;;;48.42;32.95;;;;;;;7.64;48.14;102869.50;5027632;28;20049;-64
2022/03/21 01:30:02;;;;;;;49.38;33.33;;;;;;;7.59;48.09;102879.44;5034666;28;20046;-64
2022/03/21 01:32:29;;;;;;;48.05;32.65;;;;;;;7.52;47.98;102881.41;5016453;28;20121;-64
2022/03/21 01:34:55;;;;;;;47.17;33.55;;;;;;;7.48;48.08;102884.19;5033676;28;20469;-64
2022/03/21 01:37:22;;;;;;;50.22;33.55;;;;;;;7.38;48.05;102880.84;4999946;28;20468;-63
2022/03/21 01:39:49;;;;;;;50.95;34.55;;;;;;;7.27;48.24;102886.47;5033772;28;20037;-64
2022/03/21 01:42:16;;;;;;;50.35;33.95;;;;;;;7.19;48.21;102901.81;5033825;28;20043;-64
2022/03/21 01:44:42;;;;;;;52.42;35.13;;;;;;;7.09;48.28;102899.38;5034111;28;20128;-65
2022/03/21 01:47:10;;;;;;;52.42;35.30;;;;;;;7.02;48.35;102890.63;4999609;28;20038;-63
2022/03/21 01:49:36;;;;;;;52.58;35.53;;;;;;;6.95;48.60;102889.91;5033787;28;20128;-64
2022/03/21 01:52:03;;;;;;;54.25;36.05;;;;;;;6.92;48.59;102895.31;5016031;28;20042;-64
2022/03/21 01:57:15;;;;;;;53.85;36.75;;;;;;;6.86;48.71;102883.91;5034024;28;20045;-65
2022/03/21 01:59:45;;;;;;;48.13;34.30;;;;;;;6.78;48.75;102889.41;5033526;28;20045;-64
2022/03/21 02:02:12;;;;;;;55.38;35.85;;;;;;;6.73;48.89;102898.44;5015545;28;20103;-64
2022/03/21 02:04:39;;;;;;;55.03;36.47;;;;;;;6.69;48.86;102897.63;5016077;28;20042;-64
2022/03/21 02:07:06;;;;;;;56.25;36.53;;;;;;;6.69;49.00;102889.63;5033411;28;20037;-64
2022/03/21 02:09:33;;;;;;;57.28;37.42;;;;;;;6.68;48.94;102899.41;5013725;28;20065;-63
2022/03/21 02:12:00;;;;;;;55.63;36.95;;;;;;;6.65;49.16;102891.47;5023284;28;20037;-64
2022/03/21 02:14:27;;;;;;;53.88;36.65;;;;;;;6.62;49.03;102895.97;5033121;28;20479;-64
2022/03/21 02:16:53;;;;;;;56.33;38.53;;;;;;;6.56;49.20;102890.78;5033128;28;20046;-63
2022/03/21 02:19:30;;;;;;;59.90;38.70;;;;;;;6.50;49.24;102890.91;5025248;28;20095;-64
2022/03/21 02:21:57;;;;;;;55.47;37.83;;;;;;;6.44;49.29;102896.38;5033332;28;20045;-64
2022/03/21 02:24:47;;;;;;;58.58;38.92;;;;;;;6.38;49.61;102892.94;5032816;28;20048;-63
2022/03/21 02:27:16;;;;;;;54.63;36.72;;;;;;;6.33;49.54;102893.94;5033051;28;20037;-63
2022/03/21 02:29:47;;;;;;;54.88;37.35;;;;;;;6.28;49.50;102899.38;5015457;28;20083;-64
2022/03/21 02:32:14;;;;;;;55.58;36.10;;;;;;;6.23;49.50;102895.91;5033128;28;20458;-65
2022/03/21 02:34:41;;;;;;;49.35;33.85;;;;;;;6.18;49.57;102888.91;5033184;28;20041;-64
2022/03/21 02:37:11;;;;;;;54.83;36.60;;;;;;;6.15;49.68;102895.19;5032800;28;20077;-64
2022/03/21 02:39:38;;;;;;;57.75;37.22;;;;;;;6.14;49.71;102896.09;5015349;28;20042;-64
2022/03/21 02:42:05;;;;;;;62.30;35.95;;;;;;;6.14;49.93;102896.09;5015554;28;20052;-64
2022/03/21 02:44:37;;;;;;;62.35;36.47;;;;;;;6.18;49.83;102892.47;4999362;28;20132;-64
2022/03/21 02:47:08;;;;;;;61.65;36.40;;;;;;;6.24;49.99;102895.00;5015408;28;20046;-64
2022/03/21 02:49:35;;;;;;;55.55;35.83;;;;;;;6.28;49.83;102896.72;5032663;28;20128;-63
2022/03/21 02:52:04;;;;;;;55.38;35.88;;;;;;;6.28;49.97;102899.38;5032945;28;20052;-64
2022/03/21 02:54:32;;;;;;;57.17;37.42;;;;;;;6.25;49.99;102891.44;5014922;28;20076;-64
2022/03/21 02:57:00;;;;;;;56.03;36.67;;;;;;;6.18;49.92;102897.81;5032446;28;20051;-64
2022/03/21 02:59:27;;;;;;;53.65;35.25;;;;;;;6.14;49.88;102889.88;5032535;28;20580;-64
2022/03/21 03:01:56;;;;;;;54.10;35.50;;;;;;;6.13;49.98;102906.81;5015204;28;20041;-65
2022/03/21 03:04:24;;;;;;;49.33;33.97;;;;;;;6.11;49.83;102900.63;5014915;28;20038;-65
2022/03/21 03:06:51;;;;;;;54.30;34.33;;;;;;;6.10;49.93;102893.53;5038536;28;20140;-64
2022/03/21 03:09:18;;;;;;;54.72;35.67;;;;;;;6.06;50.01;102895.38;5032419;28;20120;-64
2022/03/21 03:11:44;;;;;;;55.38;36.42;;;;;;;5.99;49.96;102897.28;5032770;28;20042;-64
2022/03/21 03:14:13;;;;;;;51.28;33.53;;;;;;;5.92;50.12;102890.28;5031071;28;20047;-64
2022/03/21 03:16:40;;;;;;;52.95;35.28;;;;;;;5.89;50.00;102895.66;5021141;28;20056;-64
2022/03/21 03:19:07;;;;;;;46.80;32.38;;;;;;;5.85;49.96;102891.28;5031982;28;20364;-64
2022/03/21 03:21:37;;;;;;;51.22;34.95;;;;;;;5.84;50.02;102891.31;5033967;28;20574;-64
2022/03/21 03:24:10;;;;;;;51.58;34.17;;;;;;;5.83;50.11;102892.22;5007938;28;20041;-64
2022/03/21 03:26:37;;;;;;;54.03;34.03;;;;;;;5.80;50.14;102890.47;5031128;28;20532;-64
2022/03/21 03:29:04;;;;;;;51.72;33.08;;;;;;;5.78;50.32;102889.63;5030282;28;20048;-64
2022/03/21 03:31:34;;;;;;;56.78;34.88;;;;;;;5.73;50.14;102887.03;5032607;28;20129;-64
2022/03/21 03:34:03;;;;;;;51.33;34.45;;;;;;;5.71;50.18;102893.31;5033650;28;20384;-64
2022/03/21 03:36:31;;;;;;;55.83;34.53;;;;;;;5.68;50.23;102899.59;5042768;28;20049;-63
2022/03/21 03:38:58;;;;;;;52.70;33.65;;;;;;;5.66;50.45;102896.06;5032175;28;20034;-64
2022/03/21 03:41:26;;;;;;;50.90;34.13;;;;;;;5.68;50.28;102898.69;5042454;28;20052;-63
2022/03/21 03:43:54;;;;;;;48.50;32.10;;;;;;;5.66;50.34;102898.72;5038111;28;20046;-64
2022/03/21 03:46:21;;;;;;;46.33;31.15;;;;;;;5.69;50.32;102905.78;5031471;28;20120;-64
2022/03/21 03:48:49;;;;;;;49.47;32.92;;;;;;;5.66;50.25;102906.72;5034427;28;20037;-64
2022/03/21 03:51:16;;;;;;;49.38;32.50;;;;;;;5.65;50.29;102907.63;5036246;28;20047;-64
2022/03/21 03:54:05;;;;;;;52.30;32.63;;;;;;;5.63;50.38;102919.22;5039618;28;20045;-64
2022/03/21 03:56:32;;;;;;;47.90;32.60;;;;;;;5.67;50.46;102915.59;5052156;28;20453;-64
2022/03/21 03:58:58;;;;;;;48.60;31.77;;;;;;;5.69;50.45;102919.13;5054883;28;20470;-63
2022/03/21 04:01:25;;;;;;;48.83;31.05;;;;;;;5.73;50.45;102927.03;5054744;28;20116;-64
2022/03/21 04:03:56;;;;;;;48.63;31.67;;;;;;;5.74;50.47;102917.25;5055259;28;20095;-65
2022/03/21 04:06:23;;;;;;;50.40;32.75;;;;;;;5.75;50.38;102917.22;5055134;28;20120;-63
2022/03/21 04:08:51;;;;;;;48.90;30.88;;;;;;;5.77;50.41;102910.97;5041202;28;20048;-67
2022/03/21 04:11:19;;;;;;;50.17;31.08;;;;;;;5.75;50.60;102919.00;5034925;28;20052;-64
2022/03/21 04:13:54;;;;;;;47.35;31.08;;;;;;;5.75;50.59;102922.56;5034518;28;20045;-63
2022/03/21 04:16:20;;;;;;;51.13;32.10;;;;;;;5.72;50.46;102927.06;5034657;28;20054;-63
2022/03/21 04:18:48;;;;;;;45.85;30.98;;;;;;;5.68;50.54;102922.69;5034510;28;20037;-64
2022/03/21 04:21:25;;;;;;;46.33;31.17;;;;;;;5.63;50.45;102917.44;5034729;28;20053;-64
2022/03/21 04:23:57;;;;;;;50.70;31.73;;;;;;;5.59;50.73;102920.19;5034535;28;20375;-65
2022/03/21 04:26:24;;;;;;;47.53;31.10;;;;;;;5.56;50.79;102907.78;5026617;28;20046;-64
2022/03/21 04:28:51;;;;;;;52.90;32.90;;;;;;;5.54;50.87;102906.94;5028783;28;20041;-64
2022/03/21 04:31:18;;;;;;;49.20;32.78;;;;;;;5.50;50.83;102913.22;5032871;28;20041;-63
2022/03/21 04:33:49;;;;;;;53.85;33.50;;;;;;;5.46;50.72;102906.19;5033973;28;20045;-64
2022/03/21 04:36:16;;;;;;;54.83;32.80;;;;;;;5.41;50.78;102913.38;5034136;28;20541;-63
2022/03/21 04:38:43;;;;;;;55.22;33.78;;;;;;;5.35;50.79;102916.16;5020949;28;20549;-63
2022/03/21 04:41:10;;;;;;;52.40;33.28;;;;;;;5.34;51.01;102917.06;4996673;28;20048;-64
2022/03/21 04:43:37;;;;;;;59.88;34.70;;;;;;;5.34;50.94;102919.72;5027960;28;20502;-64
2022/03/21 04:46:05;;;;;;;54.42;31.75;;;;;;;5.34;51.23;102925.94;5014350;28;20056;-64
2022/03/21 04:48:32;;;;;;;54.05;33.88;;;;;;;5.36;51.27;102920.56;5030619;28;20045;-64
2022/03/21 04:50:59;;;;;;;60.63;36.35;;;;;;;5.36;51.33;102921.47;4995248;28;20048;-64
2022/03/21 04:53:26;;;;;;;57.95;33.90;;;;;;;5.34;51.20;102922.38;5015467;28;20072;-64
2022/03/21 04:55:52;;;;;;;56.75;33.38;;;;;;;5.31;51.39;102931.31;5034293;28;20048;-64
2022/03/21 04:58:19;;;;;;;52.40;32.63;;;;;;;5.31;51.28;102933.09;5024107;28;20104;-64
2022/03/21 05:00:45;;;;;;;50.50;31.05;;;;;;;5.33;51.44;102939.28;5016087;28;20042;-63
2022/03/21 05:03:12;;;;;;;50.70;32.30;;;;;;;5.34;51.17;102936.59;5018106;28;20100;-64
2022/03/21 05:05:47;;;;;;;64.40;36.35;;;;;;;5.39;51.37;102947.16;5019248;28;20536;-63
2022/03/21 05:08:14;;;;;;;58.15;35.00;;;;;;;5.39;51.36;102939.19;5014941;28;20046;-64
2022/03/21 05:10:42;;;;;;;60.92;33.83;;;;;;;5.37;51.17;102941.88;5014994;28;20525;-64
2022/03/21 05:13:09;;;;;;;56.42;33.42;;;;;;;5.33;51.08;102944.59;5023112;28;20034;-63
2022/03/21 05:15:37;;;;;;;63.00;36.88;;;;;;;5.25;51.35;102939.41;5036368;28;20055;-64
2022/03/21 05:18:04;;;;;;;63.78;35.03;;;;;;;5.18;51.27;102942.16;5025614;28;20050;-63
2022/03/21 05:20:31;;;;;;;67.95;35.10;;;;;;;5.08;51.30;102942.28;5013866;28;20034;-63
2022/03/21 05:31:13;;;;;;;59.72;34.05;;;;;;;4.84;51.61;102939.97;5032983;28;20084;-64
2022/03/21 05:35:55;;;;;;;55.88;34.72;;;;;;;4.82;51.72;102940.91;5032751;28;20038;-63
2022/03/21 05:36:44;;;;;;;52.13;33.85;;;;;;;4.83;51.82;102945.31;5029450;28;20037;-64
2022/03/21 05:39:10;;;;;;;53.40;32.78;;;;;;;4.86;51.93;102943.50;5032933;28;20044;-64
2022/03/21 05:41:37;;;;;;;50.20;32.28;;;;;;;4.94;51.92;102946.06;5032579;28;20080;-64
2022/03/21 05:44:09;;;;;;;49.28;31.48;;;;;;;5.00;51.93;102941.53;5032550;28;20045;-63
2022/03/21 05:46:35;;;;;;;50.53;32.30;;;;;;;5.06;51.74;102941.44;5032059;28;20080;-63
2022/03/21 05:49:02;;;;;;;52.95;31.85;;;;;;;5.11;52.02;102938.69;5032139;28;20038;-63
2022/03/21 05:51:32;;;;;;;47.33;30.83;;;;;;;5.14;51.94;102941.31;5031917;28;20469;-63
2022/03/21 05:54:05;;;;;;;44.17;29.33;;;;;;;5.18;51.78;102936.81;5032338;28;20072;-63
2022/03/21 05:56:32;;;;;;;45.92;29.45;;;;;;;5.20;51.63;102941.25;5032134;28;20116;-64
2022/03/21 06:01:44;;;;;;;43.83;28.65;;;;;;;5.24;51.85;102942.97;5030306;28;20455;-64
2022/03/21 06:04:15;;;;;;;45.10;28.15;;;;;;;5.27;51.62;102950.91;5032161;28;20476;-64
2022/03/21 06:06:43;;;;;;;42.85;27.80;;;;;;;5.31;51.56;102949.06;5031777;28;20052;-64
2022/03/21 06:09:10;;;;;;;41.92;27.83;;;;;;;5.32;51.66;102951.72;5031964;28;20061;-64
2022/03/21 06:11:36;;;;;;;47.28;29.08;;;;;;;5.34;51.71;102946.38;5031431;28;20048;-63
2022/03/21 06:14:05;;;;;;;43.38;27.80;;;;;;;5.36;51.76;102944.56;5031670;28;20083;-64
2022/03/21 06:16:32;;;;;;;46.28;29.77;;;;;;;5.38;51.61;102948.06;5031308;28;20451;-64
2022/03/21 06:19:00;;;;;;;47.97;30.13;;;;;;;5.38;51.67;102954.28;5031175;28;20069;-63
2022/03/21 06:21:30;;;;;;;42.40;27.98;;;;;;;5.35;51.55;102957.00;5031660;28;20080;-64
2022/03/21 06:24:01;;;;;;;44.92;29.20;;;;;;;5.26;51.54;102957.13;5031654;28;20111;-64
2022/03/21 06:26:28;;;;;;;51.85;32.28;;;;;;;5.23;51.74;102964.31;5031798;28;20045;-64
2022/03/21 06:28:54;;;;;;;39.97;27.23;;;;;;;5.18;51.74;102953.69;5030927;28;20038;-64
2022/03/21 06:31:21;;;;;;;37.53;24.58;;;;;;;5.16;51.61;102958.16;5031144;28;20468;-63
2022/03/21 06:33:50;;;;;;;35.38;25.08;;;;;;;5.11;51.76;102966.22;5018209;28;20443;-63
2022/03/21 06:36:16;;;;;;;39.25;26.25;;;;;;;5.08;51.76;102966.25;5011802;28;20045;-64
2022/03/21 06:38:43;;;;;;;40.22;26.50;;;;;;;5.04;51.75;102968.97;5015671;28;20033;-63
2022/03/21 06:41:10;;;;;;;40.85;27.90;;;;;;;4.99;51.89;102982.38;5031335;28;20057;-64
2022/03/21 06:43:36;;;;;;;44.35;29.67;;;;;;;4.94;52.08;102976.22;5031640;28;20072;-63
2022/03/21 06:46:05;;;;;;;45.28;29.20;;;;;;;4.89;52.23;102980.72;5022767;28;20144;-64
2022/03/21 06:48:34;;;;;;;43.42;28.25;;;;;;;4.89;52.29;102979.84;5014142;28;20048;-64
2022/03/21 06:51:01;;;;;;;38.70;26.42;;;;;;;4.86;52.38;102986.09;5016344;28;20761;-63
2022/03/21 06:53:27;;;;;;;32.85;23.80;;;;;;;4.85;52.52;102994.09;5007931;28;20056;-64
2022/03/21 06:55:54;;;;;;;36.70;23.63;;;;;;;4.85;52.67;102987.00;5011486;28;20092;-64
2022/03/21 06:58:21;;;;;;;32.35;23.77;;;;;;;4.88;52.70;102988.72;5002940;28;20502;-64
2022/03/21 07:00:48;;;;;;;32.53;23.63;;;;;;;4.90;53.03;102989.59;5018723;28;20107;-64
2022/03/21 07:03:15;;;;;;;33.22;24.10;;;;;;;4.94;53.01;103000.19;5011555;28;20070;-64
2022/03/21 07:05:43;;;;;;;35.60;24.83;;;;;;;4.98;53.30;102987.72;5019001;28;20037;-64
2022/03/21 07:08:11;;;;;;;31.60;23.27;;;;;;;5.04;53.55;103000.94;5008448;28;20467;-64
2022/03/21 07:10:40;;;;;;;37.28;25.33;;;;;;;5.10;53.73;103007.06;5013013;28;20056;-64
2022/03/21 07:13:07;;;;;;;35.28;24.30;;;;;;;5.21;53.91;103003.41;5015294;28;20049;-64
2022/03/21 07:15:35;;;;;;;32.33;23.33;;;;;;;5.30;53.90;103001.47;5011106;28;20064;-64
2022/03/21 07:18:02;;;;;;;33.13;23.85;;;;;;;5.41;54.27;102986.22;5012288;28;20042;-64
2022/03/21 07:20:29;;;;;;;37.90;24.27;;;;;;;5.55;54.42;102999.31;5012932;28;20045;-64
2022/03/21 07:22:57;;;;;;;32.08;23.17;;;;;;;5.69;54.67;102999.97;5008465;28;20038;-64
2022/03/21 07:25:25;;;;;;;32.80;24.75;;;;;;;5.85;54.71;103002.38;5016173;28;20050;-63
2022/03/21 07:27:52;;;;;;;32.35;24.27;;;;;;;6.01;54.99;103006.59;5033315;28;20037;-64
2022/03/21 07:30:19;;;;;;;31.88;23.52;;;;;;;6.19;55.05;103008.94;5042106;28;20401;-64
2022/03/21 07:32:45;;;;;;;30.67;22.27;;;;;;;6.40;55.31;103009.44;5031723;28;20076;-63
2022/03/21 07:35:14;;;;;;;31.45;23.20;;;;;;;6.62;55.61;103013.47;5032077;28;20129;-65
2022/03/21 07:37:46;;;;;;;33.90;23.02;;;;;;;6.85;55.62;103011.22;5031335;28;20053;-64
2022/03/21 07:40:14;;;;;;;33.38;22.20;;;;;;;7.10;55.64;103013.38;5033440;28;20038;-64
2022/03/21 07:42:43;;;;;;;31.98;22.48;;;;;;;7.39;55.91;103018.94;5036920;28;20048;-64
2022/03/21 07:47:58;;;;;;;31.85;21.67;;;;;;;8.24;56.44;103021.31;5034581;28;20496;-64
2022/03/21 07:50:26;;;;;;;27.52;20.20;;;;;;;8.70;56.23;103012.03;5034894;28;20038;-64
2022/03/21 07:52:54;;;;;;;30.77;18.83;;;;;;;9.13;56.35;103014.34;5034880;28;20041;-64
2022/03/21 07:55:26;;;;;;;28.95;20.63;;;;;;;9.57;56.00;103011.16;5034671;28;20045;-64
2022/03/21 07:57:53;;;;;;;30.15;20.77;;;;;;;9.93;56.07;103008.22;5034761;28;20076;-65
2022/03/21 08:00:19;;;;;;;24.83;16.92;;;;;;;10.25;55.99;103011.63;5034217;28;20037;-65
2022/03/21 08:02:46;;;;;;;26.00;17.88;;;;;;;10.57;55.91;103015.88;5034512;28;20056;-64
2022/03/21 08:05:13;;;;;;;24.45;17.55;;;;;;;10.89;55.74;103015.53;5034482;28;20087;-65
2022/03/21 08:07:41;;;;;;;24.25;16.90;;;;;;;11.21;55.67;103014.31;5015012;28;20480;-64
2022/03/21 08:10:08;;;;;;;23.08;16.63;;;;;;;11.52;55.35;103007.72;5015157;28;20042;-64
2022/03/21 08:12:42;;;;;;;22.90;16.08;;;;;;;11.82;55.17;103006.50;5014715;28;20459;-65
2022/03/21 08:15:12;;;;;;;21.92;15.27;;;;;;;12.15;54.90;103011.41;5015071;28;20050;-64
2022/03/21 08:18:00;;;;;;;27.38;16.05;;;;;;;12.49;54.89;103005.41;5027653;28;20045;-64
2022/03/21 08:20:33;;;;;;;20.40;13.25;;;;;;;12.78;54.20;103006.81;5034565;28;20438;-64
2022/03/21 08:23:06;;;;;;;18.33;12.98;;;;;;;13.07;53.98;103009.03;5015656;28;20077;-66
2022/03/21 08:25:35;;;;;;;18.65;12.75;;;;;;;13.37;53.58;103012.09;5033640;28;20487;-64
2022/03/21 08:28:04;;;;;;;28.05;13.48;;;;;;;13.63;53.01;103017.13;5033422;28;20057;-64
2022/03/21 08:30:32;;;;;;;22.05;13.75;;;;;;;13.89;53.03;102999.63;5014211;28;20491;-65
2022/03/21 08:33:01;;;;;;;18.70;13.65;;;;;;;14.12;52.29;103013.78;5013337;28;20034;-67
2022/03/21 08:35:32;;;;;;;21.00;13.60;;;;;;;14.32;52.00;103005.53;5013670;28;20046;-66
2022/03/21 08:37:59;;;;;;;18.20;12.85;;;;;;;14.49;51.68;103007.38;5013099;28;20681;-67
2022/03/21 08:40:26;;;;;;;21.50;12.95;;;;;;;14.63;51.09;103005.69;5014114;28;20046;-66
2022/03/21 08:42:55;;;;;;;23.75;14.27;;;;;;;14.77;50.75;103004.94;5013342;28;20046;-67
2022/03/21 08:45:22;;;;;;;21.48;13.27;;;;;;;14.91;50.48;103005.09;5013648;28;20460;-67
2022/03/21 08:47:52;;;;;;;20.17;12.77;;;;;;;15.10;50.23;103004.94;5013276;28;20169;-66
2022/03/21 08:50:23;;;;;;;20.00;12.38;;;;;;;15.31;50.18;103010.97;5013235;28;20523;-67
2022/03/21 08:52:50;;;;;;;24.75;12.63;;;;;;;15.48;49.67;102993.75;5013397;28;20037;-67
2022/03/21 08:55:16;;;;;;;17.95;12.82;;;;;;;15.62;49.58;103002.03;5013193;28;20467;-67
2022/03/21 08:57:43;;;;;;;19.23;12.98;;;;;;;15.76;49.33;103003.94;5012899;28;20046;-67
2022/03/21 09:00:10;;;;;;;18.63;11.65;;;;;;;15.94;48.72;103004.69;5012596;28;20057;-67
2022/03/21 09:02:37;;;;;;;20.92;12.38;;;;;;;16.10;48.76;103000.97;4995316;28;20070;-67
2022/03/21 09:05:05;;;;;;;17.90;11.80;;;;;;;16.24;47.96;103001.97;5013138;28;20048;-67
2022/03/21 09:07:32;;;;;;;16.85;12.35;;;;;;;16.38;47.82;103002.91;5012310;28;20060;-66
2022/03/21 09:09:59;;;;;;;18.40;12.73;;;;;;;16.49;47.16;103000.41;5013053;28;20042;-65
2022/03/21 09:12:25;;;;;;;20.50;12.35;;;;;;;16.65;47.29;102996.72;5014903;28;20065;-65
2022/03/21 09:14:53;;;;;;;18.67;12.85;;;;;;;16.77;46.98;102998.69;5032772;28;20124;-65
2022/03/21 09:17:20;;;;;;;17.95;12.38;;;;;;;16.84;46.43;103000.06;5033001;28;20136;-66
2022/03/21 09:19:47;;;;;;;21.23;13.23;;;;;;;16.91;46.14;102998.69;5031396;28;20076;-65
2022/03/21 09:22:14;;;;;;;16.55;12.45;;;;;;;16.99;45.89;103001.78;5032311;28;20037;-66
2022/03/21 09:24:43;;;;;;;20.75;12.82;;;;;;;17.07;45.87;102998.59;5032856;28;20068;-65
2022/03/21 09:27:11;;;;;;;20.88;13.20;;;;;;;17.14;45.63;102995.41;5015292;28;20052;-66
2022/03/21 09:29:39;;;;;;;19.55;13.38;;;;;;;17.23;45.65;102996.66;5032804;28;20051;-66
2022/03/21 09:32:06;;;;;;;22.20;14.95;;;;;;;17.34;45.07;102990.53;5032817;28;20044;-65
2022/03/21 09:34:39;;;;;;;23.80;14.50;;;;;;;17.44;45.27;102988.94;5026334;28;20058;-66
2022/03/21 09:37:06;;;;;;;22.40;14.82;;;;;;;17.53;44.71;102995.59;5012873;28;20033;-65
2022/03/21 09:39:33;;;;;;;21.92;14.23;;;;;;;17.62;44.23;102986.84;5017706;28;20125;-65
2022/03/21 09:42:02;;;;;;;22.17;14.13;;;;;;;17.67;44.14;102993.75;5032443;28;20103;-66
2022/03/21 09:44:31;;;;;;;21.80;14.50;;;;;;;17.75;43.64;102987.78;5030957;28;20160;-65
2022/03/21 09:48:08;;;;;;;19.25;14.15;;;;;;;17.79;43.77;102979.31;5022851;28;20058;-65
2022/03/21 09:49:50;;;;;;;19.40;13.85;;;;;;;17.88;43.37;102977.84;5012531;28;20073;-66
2022/03/21 09:52:19;;;;;;;25.92;15.50;;;;;;;17.97;43.02;102977.22;5012933;28;20053;-66
2022/03/21 09:54:52;;;;;;;22.35;15.18;;;;;;;18.05;43.00;102979.41;5013910;28;20048;-65
2022/03/21 09:57:19;;;;;;;23.08;14.98;;;;;;;18.10;42.53;102977.25;5012348;28;20078;-66
2022/03/21 09:59:45;;;;;;;28.67;15.15;;;;;;;18.18;42.45;102971.28;5012453;28;20761;-66
2022/03/21 10:02:17;;;;;;;24.27;14.45;;;;;;;18.27;42.61;102968.78;5012444;28;20034;-65
2022/03/21 10:04:46;;;;;;;23.20;15.38;;;;;;;18.39;42.54;102967.06;5012597;28;20041;-66
2022/03/21 10:07:15;;;;;;;24.60;15.65;;;;;;;18.52;42.37;102962.47;5016791;28;20037;-66
2022/03/21 10:09:42;;;;;;;21.20;14.25;;;;;;;18.63;42.46;102962.66;5002842;28;20069;-66
2022/03/21 10:12:11;;;;;;;26.73;15.05;;;;;;;18.73;41.76;102960.13;5013645;28;20377;-66
2022/03/21 10:14:42;;;;;;;25.80;14.13;;;;;;;18.79;41.40;102967.88;5012323;28;20052;-66
2022/03/21 10:17:11;;;;;;;25.13;15.23;;;;;;;18.91;41.69;102963.38;5025327;28;20053;-66
2022/03/21 10:19:51;;;;;;;22.48;15.75;;;;;;;19.03;41.34;102967.94;5030156;28;20048;-65
2022/03/21 10:22:33;;;;;;;24.38;14.32;;;;;;;19.13;40.71;102965.41;5021488;28;20062;-66
2022/03/21 10:25:06;;;;;;;25.25;15.68;;;;;;;19.22;40.81;102951.09;5026952;28;20350;-66
2022/03/21 10:27:37;;;;;;;26.73;15.18;;;;;;;19.29;40.59;102955.97;5028042;28;20562;-67
2022/03/21 10:30:18;;;;;;;22.98;14.93;;;;;;;19.35;40.56;102950.09;5032030;28;20068;-65
2022/03/21 10:32:50;;;;;;;24.08;14.77;;;;;;;19.45;40.27;102953.00;5032130;28;20051;-65
2022/03/21 10:35:22;;;;;;;23.02;15.80;;;;;;;19.56;40.34;102954.94;5031293;28;20093;-66
2022/03/21 10:37:53;;;;;;;27.73;15.05;;;;;;;19.65;39.83;102954.25;5031587;28;20057;-66
2022/03/21 10:40:20;;;;;;;22.02;15.02;;;;;;;19.72;39.59;102952.78;5031891;28;20045;-65
2022/03/21 10:43:05;;;;;;;24.70;15.25;;;;;;;19.77;39.29;102958.75;5031724;28;20128;-66
2022/03/21 10:45:35;;;;;;;21.63;14.80;;;;;;;19.90;39.63;102955.97;5031654;28;20056;-65
2022/03/21 10:48:05;;;;;;;24.88;15.25;;;;;;;20.02;39.35;102956.84;5031692;28;20483;-66
2022/03/21 10:50:34;;;;;;;23.77;15.00;;;;;;;20.18;39.13;102949.25;5031717;28;20038;-65
2022/03/21 10:53:06;;;;;;;24.70;15.52;;;;;;;20.30;38.71;102949.16;5031591;28;20404;-66
2022/03/21 10:55:39;;;;;;;25.67;15.85;;;;;;;20.42;38.82;102946.47;5031690;28;20076;-65
2022/03/21 10:58:07;;;;;;;21.45;15.25;;;;;;;20.52;38.84;102942.88;5031664;28;20464;-66
2022/03/21 11:00:34;;;;;;;21.88;14.88;;;;;;;20.60;38.55;102947.72;5035919;28;20042;-65
2022/03/21 11:03:05;;;;;;;26.77;15.18;;;;;;;20.66;38.04;102936.31;5035952;28;20430;-65
2022/03/21 11:05:41;;;;;;;21.80;15.20;;;;;;;20.76;37.80;102939.16;5035873;28;20038;-65
2022/03/21 11:08:10;;;;;;;22.98;15.45;;;;;;;20.87;37.79;102925.53;5035397;28;20265;-65
2022/03/21 11:10:38;;;;;;;21.20;15.57;;;;;;;21.00;37.86;102936.31;5035700;28;20069;-65
2022/03/21 11:13:06;;;;;;;24.80;15.48;;;;;;;21.07;37.70;102935.69;5018595;28;20364;-65
2022/03/21 11:15:36;;;;;;;23.17;16.15;;;;;;;21.17;37.59;102935.78;5035410;28;20041;-65
2022/03/21 11:18:05;;;;;;;32.10;15.82;;;;;;;21.29;37.67;102929.34;5035187;28;20084;-65
2022/03/21 11:20:32;;;;;;;25.73;16.85;;;;;;;21.42;37.40;102930.03;5035496;28;20061;-65
2022/03/21 11:23:01;;;;;;;22.83;16.13;;;;;;;21.56;37.38;102931.63;5035135;28;20120;-65
2022/03/21 11:25:34;;;;;;;22.58;15.48;;;;;;;21.74;37.35;102930.06;5035457;28;20601;-65
2022/03/21 11:28:38;;;;;;;24.05;16.13;;;;;;;21.91;37.09;102923.13;5035407;28;20076;-66
2022/03/21 11:31:17;;;;;;;24.35;16.90;;;;;;;22.08;36.92;102924.44;5034853;28;20496;-67
2022/03/21 11:33:54;;;;;;;25.77;17.35;;;;;;;22.23;36.46;102917.63;5017879;28;20069;-67
2022/03/21 11:36:23;;;;;;;22.20;16.20;;;;;;;22.29;36.51;102918.94;5035176;28;20108;-67
2022/03/21 11:38:57;;;;;;;23.00;15.98;;;;;;;22.33;36.32;102915.84;5034994;28;20041;-65